Time;durP1;ratioP1;P1;durP2;ratioP2;P2;SDS_P1;SDS_P2;PMS_P1;PMS_P2;Temp;Humidity;BMP_temperature;BMP_pressure;BME280_temperature;BME280_humidity;BME280_pressure;Samples;Min_cycle;Max_cycle;Signal;HPM_P1;HPM_P2
2021/11/14 00:01:06;;;;;;;35.97;27.67;;;;;;;10.68;70.94;101824.25;6158921;28;20207;-67
2021/11/14 00:04:28;;;;;;;40.03;26.43;;;;;;;10.71;71.12;101829.50;6157115;28;20321;-67
2021/11/14 00:07:49;;;;;;;35.67;26.40;;;;;;;10.61;71.17;101833.78;6157580;28;20242;-68
2021/11/14 00:11:14;;;;;;;35.97;27.93;;;;;;;10.64;71.25;101839.00;6153522;28;20330;-67
2021/11/14 00:14:35;;;;;;;37.73;27.07;;;;;;;10.54;71.43;101835.47;6157230;28;20218;-67
2021/11/14 00:17:56;;;;;;;38.07;26.37;;;;;;;10.58;71.31;101836.34;6160729;28;20235;-66
2021/11/14 00:21:22;;;;;;;34.60;27.37;;;;;;;10.58;71.74;101847.63;6163493;28;20198;-66
2021/11/14 00:24:43;;;;;;;37.97;30.07;;;;;;;10.48;71.71;101847.56;6159452;28;20703;-66
2021/11/14 00:28:05;;;;;;;40.47;28.87;;;;;;;10.33;72.18;101854.41;6156989;28;20231;-67
2021/11/14 00:31:35;;;;;;;38.33;27.87;;;;;;;10.44;71.79;101847.53;6170461;28;20250;-66
2021/11/14 00:34:55;;;;;;;43.40;30.77;;;;;;;10.32;72.28;101855.25;6155455;28;20218;-67
2021/11/14 00:38:18;;;;;;;41.80;28.30;;;;;;;10.36;71.99;101859.63;6157789;28;20234;-67
2021/11/14 00:41:38;;;;;;;41.20;27.53;;;;;;;10.22;72.63;101867.28;6156322;28;20227;-65
2021/11/14 00:44:59;;;;;;;37.77;27.67;;;;;;;10.26;72.18;101860.38;6154673;28;20222;-65
2021/11/14 00:48:20;;;;;;;45.87;29.93;;;;;;;10.35;72.04;101863.09;6158935;28;20231;-65
2021/11/14 00:51:42;;;;;;;36.60;27.50;;;;;;;10.39;71.70;101871.78;6156568;28;20218;-67
2021/11/14 00:55:06;;;;;;;36.17;28.10;;;;;;;10.32;71.87;101870.88;6157126;28;20202;-67
2021/11/14 00:58:27;;;;;;;32.80;26.73;;;;;;;10.20;72.41;101874.22;6158390;28;20633;-66
2021/11/14 01:01:48;;;;;;;50.13;27.00;;;;;;;10.38;71.87;101881.34;6155838;28;20207;-67
2021/11/14 01:05:12;;;;;;;33.30;26.37;;;;;;;10.34;72.04;101892.59;6157204;28;20572;-66
2021/11/14 01:08:33;;;;;;;31.53;25.20;;;;;;;10.44;71.68;101886.59;6158681;28;20374;-66
2021/11/14 01:11:56;;;;;;;33.37;24.37;;;;;;;10.34;72.01;101895.19;6153123;28;20223;-66
2021/11/14 01:15:18;;;;;;;33.23;24.20;;;;;;;10.36;72.22;101897.81;6153185;28;20306;-66
2021/11/14 01:18:40;;;;;;;36.77;25.97;;;;;;;10.34;72.31;101897.81;6162993;28;20230;-67
2021/11/14 01:22:01;;;;;;;29.53;23.33;;;;;;;10.27;71.84;101914.19;6155788;28;20238;-67
2021/11/14 01:25:22;;;;;;;30.80;24.23;;;;;;;10.38;72.05;101915.19;6160663;28;20199;-66
2021/11/14 01:28:45;;;;;;;35.87;24.50;;;;;;;10.13;72.32;101907.97;6160782;28;20536;-65
2021/11/14 01:32:07;;;;;;;31.80;25.43;;;;;;;10.21;72.38;101916.72;6159911;28;20226;-66
2021/11/14 01:35:29;;;;;;;29.33;22.67;;;;;;;10.28;72.58;101917.69;6161346;28;20207;-66
2021/11/14 01:38:50;;;;;;;26.67;23.50;;;;;;;10.19;72.81;101918.44;6163715;28;20239;-67
2021/11/14 01:42:12;;;;;;;34.40;24.47;;;;;;;10.46;71.79;101922.22;6160961;28;20627;-67
2021/11/14 01:45:34;;;;;;;25.33;22.23;;;;;;;10.55;71.58;101930.13;6166642;28;20297;-67
2021/11/14 01:48:55;;;;;;;37.50;25.87;;;;;;;10.56;71.07;101924.91;6160019;28;20226;-65
2021/11/14 01:52:21;;;;;;;31.33;24.43;;;;;;;10.41;71.23;101920.44;6162988;28;20310;-68
2021/11/14 01:55:46;;;;;;;29.47;23.00;;;;;;;10.35;72.10;101925.59;6163115;28;20584;-67
2021/11/14 01:59:07;;;;;;;29.87;24.07;;;;;;;10.42;72.21;101932.59;6175169;28;20265;-66
2021/11/14 02:02:30;;;;;;;29.10;24.17;;;;;;;10.43;72.51;101930.88;6163992;28;20230;-67
2021/11/14 02:05:51;;;;;;;30.30;22.50;;;;;;;10.43;72.12;101936.09;6164948;28;20299;-68
2021/11/14 02:09:14;;;;;;;32.90;23.93;;;;;;;10.53;72.09;101943.13;6159815;28;20231;-67
2021/11/14 02:12:35;;;;;;;32.03;23.03;;;;;;;10.52;72.35;101943.97;6161294;28;20234;-66
2021/11/14 02:15:57;;;;;;;29.97;22.77;;;;;;;10.33;73.01;101948.16;6163535;28;20203;-65
2021/11/14 02:19:20;;;;;;;31.27;24.40;;;;;;;10.33;73.35;101948.16;6159884;28;20238;-66
2021/11/14 02:22:42;;;;;;;32.70;24.53;;;;;;;10.37;73.37;101954.22;6154540;28;20227;-67
2021/11/14 02:26:04;;;;;;;30.90;23.63;;;;;;;10.41;73.19;101956.91;6162436;28;20533;-67
2021/11/14 02:29:25;;;;;;;28.70;23.77;;;;;;;10.43;73.29;101960.41;6162454;28;20227;-67
2021/11/14 02:32:46;;;;;;;28.23;23.43;;;;;;;10.48;73.18;101968.25;6156498;28;20474;-68
2021/11/14 02:36:11;;;;;;;28.53;23.23;;;;;;;10.40;73.42;101965.56;6154310;28;20714;-67
2021/11/14 02:39:34;;;;;;;28.90;23.73;;;;;;;10.50;73.58;101970.88;6161771;28;20238;-66
2021/11/14 02:42:55;;;;;;;31.53;25.47;;;;;;;10.57;72.94;101964.88;6157261;28;20235;-65
2021/11/14 02:46:16;;;;;;;33.97;24.60;;;;;;;10.54;73.17;101970.91;6163130;28;20203;-66
2021/11/14 02:49:38;;;;;;;39.13;26.10;;;;;;;10.56;72.63;101971.78;6164045;28;20227;-65
2021/11/14 02:52:59;;;;;;;28.97;23.30;;;;;;;10.32;73.25;101984.59;6158648;28;20302;-66
2021/11/14 02:56:21;;;;;;;32.20;23.73;;;;;;;10.32;73.77;101980.25;6162862;28;20554;-65
2021/11/14 02:59:42;;;;;;;31.00;23.13;;;;;;;10.37;74.03;101980.28;6163600;28;20977;-66
2021/11/14 03:03:04;;;;;;;29.00;23.30;;;;;;;10.29;74.22;101981.91;6152486;28;21251;-66
2021/11/14 03:06:27;;;;;;;28.20;21.17;;;;;;;10.25;74.26;101991.41;6157818;28;20465;-67
2021/11/14 03:09:48;;;;;;;32.17;24.43;;;;;;;10.35;74.08;101990.69;6159163;28;20235;-66
2021/11/14 03:13:12;;;;;;;32.77;23.13;;;;;;;10.29;74.54;102003.59;6159712;28;20230;-66
2021/11/14 03:16:34;;;;;;;30.47;21.53;;;;;;;10.07;74.93;101997.28;6163827;28;20293;-66
2021/11/14 03:19:55;;;;;;;32.73;23.47;;;;;;;10.00;75.40;102001.56;6163138;28;20317;-66
2021/11/14 03:23:17;;;;;;;25.50;20.40;;;;;;;10.02;75.11;102007.66;6162404;28;20234;-67
2021/11/14 03:26:39;;;;;;;24.53;19.63;;;;;;;10.12;75.47;102005.13;6159585;28;20481;-66
2021/11/14 03:30:01;;;;;;;36.63;23.87;;;;;;;10.35;74.18;102008.94;6156922;28;20595;-65
2021/11/14 03:33:23;;;;;;;27.60;21.10;;;;;;;10.38;73.90;102008.94;6160457;28;20262;-66
2021/11/14 03:36:44;;;;;;;23.67;18.63;;;;;;;10.34;74.27;102021.94;6163379;28;20207;-66
2021/11/14 03:40:06;;;;;;;25.57;19.13;;;;;;;10.48;73.58;102024.66;6161863;28;20204;-66
2021/11/14 03:43:28;;;;;;;26.13;19.27;;;;;;;10.32;74.20;102024.50;6160473;28;20257;-66
2021/11/14 03:46:50;;;;;;;26.17;20.27;;;;;;;10.42;73.75;102034.16;6157391;28;20628;-65
2021/11/14 03:50:12;;;;;;;24.77;19.30;;;;;;;10.55;73.17;102027.34;6154866;28;20390;-65
2021/11/14 03:53:34;;;;;;;24.23;20.10;;;;;;;10.42;73.64;102034.16;6158382;28;20239;-66
2021/11/14 03:56:55;;;;;;;20.43;17.93;;;;;;;10.50;73.13;102035.97;6163106;28;20210;-66
2021/11/14 04:00:19;;;;;;;25.73;18.53;;;;;;;10.62;73.48;102023.06;6158707;28;20208;-66
2021/11/14 04:03:42;;;;;;;22.10;17.47;;;;;;;10.65;73.09;102041.34;6156293;28;20215;-66
2021/11/14 04:07:03;;;;;;;27.60;20.77;;;;;;;10.65;73.16;102033.53;6156125;28;20239;-66
2021/11/14 04:10:24;;;;;;;25.93;18.63;;;;;;;10.54;73.83;102048.16;6161275;28;20211;-65
2021/11/14 04:13:45;;;;;;;24.63;19.73;;;;;;;10.50;73.74;102059.41;6160293;28;20230;-66
2021/11/14 04:17:07;;;;;;;24.37;18.47;;;;;;;10.45;73.78;102064.59;6162421;28;20488;-65
2021/11/14 04:20:31;;;;;;;27.33;17.77;;;;;;;10.18;75.13;102071.16;6163158;28;20195;-66
2021/11/14 04:23:52;;;;;;;22.70;16.57;;;;;;;10.15;75.29;102067.66;6160198;28;20318;-67
2021/11/14 04:27:13;;;;;;;35.97;22.87;;;;;;;10.24;75.14;102072.97;6160115;28;20231;-66
2021/11/14 04:30:34;;;;;;;32.40;21.53;;;;;;;10.27;75.11;102067.78;6158711;28;20195;-66
2021/11/14 04:33:55;;;;;;;31.90;20.43;;;;;;;10.33;74.88;102073.13;6160919;28;20235;-65
2021/11/14 04:37:18;;;;;;;26.93;19.13;;;;;;;10.36;74.98;102074.88;6157733;28;20230;-65
2021/11/14 04:40:41;;;;;;;27.23;19.73;;;;;;;10.30;75.83;102088.72;6156641;28;20199;-65
2021/11/14 04:44:03;;;;;;;28.03;19.40;;;;;;;10.42;74.99;102078.44;6159150;28;20226;-66
2021/11/14 04:47:24;;;;;;;32.87;20.20;;;;;;;10.31;75.63;102092.19;6161092;28;20234;-66
2021/11/14 04:50:46;;;;;;;28.57;19.43;;;;;;;10.28;75.82;102086.91;6160638;28;20183;-65
2021/11/14 04:54:08;;;;;;;39.50;23.40;;;;;;;10.27;75.56;102093.81;6157976;28;20227;-68
2021/11/14 04:57:30;;;;;;;45.10;26.37;;;;;;;10.21;75.77;102093.75;6161576;28;20608;-66
2021/11/14 05:00:53;;;;;;;37.37;25.27;;;;;;;10.15;76.37;102101.50;6154629;28;20199;-66
2021/11/14 05:04:15;;;;;;;44.57;28.10;;;;;;;10.04;77.14;102106.53;6157433;28;20250;-64
2021/11/14 05:07:36;;;;;;;45.77;28.37;;;;;;;10.13;76.44;102101.47;6157197;28;20238;-66
2021/11/14 05:10:58;;;;;;;49.57;28.13;;;;;;;10.19;76.46;102100.69;6161414;28;20203;-65
2021/11/14 05:14:19;;;;;;;59.07;29.47;;;;;;;10.19;76.14;102111.09;6163702;28;20226;-67
2021/11/14 05:17:40;;;;;;;49.47;29.63;;;;;;;10.13;76.29;102100.59;6164743;28;21805;-65
2021/11/14 05:21:01;;;;;;;47.00;29.60;;;;;;;9.98;76.52;102101.25;6164525;28;20521;-66
2021/11/14 05:24:21;;;;;;;53.30;30.43;;;;;;;10.12;76.21;102107.53;6160121;28;20227;-66
2021/11/14 05:27:44;;;;;;;52.33;32.63;;;;;;;9.96;76.99;102106.44;6164848;28;20234;-66
2021/11/14 05:31:06;;;;;;;48.97;29.90;;;;;;;10.20;76.66;102113.72;6161532;28;20214;-67
2021/11/14 05:34:27;;;;;;;53.80;31.13;;;;;;;10.26;75.93;102118.13;6162386;28;20628;-64
2021/11/14 05:37:48;;;;;;;45.37;29.47;;;;;;;10.31;76.01;102120.81;6164648;28;20222;-66
2021/11/14 05:41:09;;;;;;;48.03;29.53;;;;;;;10.36;75.86;102122.63;6162890;28;20195;-66
2021/11/14 05:44:31;;;;;;;50.37;34.80;;;;;;;10.45;74.89;102132.31;6160709;28;20226;-66
2021/11/14 05:47:52;;;;;;;49.50;32.37;;;;;;;10.51;74.85;102141.94;6152729;28;20234;-67
2021/11/14 05:51:13;;;;;;;47.27;32.40;;;;;;;10.56;74.17;102142.84;6161734;28;20183;-65
2021/11/14 05:54:34;;;;;;;52.37;34.90;;;;;;;10.58;74.09;102147.19;6155208;28;20564;-66
2021/11/14 05:57:58;;;;;;;51.07;31.73;;;;;;;10.60;74.08;102150.72;6161950;28;20223;-65
2021/11/14 06:01:27;;;;;;;51.37;32.80;;;;;;;10.46;74.49;102146.19;6155461;28;20294;-66
2021/11/14 06:04:56;;;;;;;46.20;30.20;;;;;;;10.53;74.40;102150.63;6164939;28;20219;-65
2021/11/14 06:08:20;;;;;;;44.33;31.87;;;;;;;10.61;73.82;102155.06;6157678;28;20276;-67
2021/11/14 06:11:41;;;;;;;42.87;29.63;;;;;;;10.60;73.71;102162.84;6163838;28;20214;-66
2021/11/14 06:15:03;;;;;;;41.93;30.27;;;;;;;10.61;73.48;102167.22;6161937;28;20235;-65
2021/11/14 06:18:26;;;;;;;46.23;31.57;;;;;;;10.59;73.61;102175.00;6158120;28;20273;-66
2021/11/14 06:21:47;;;;;;;47.20;31.17;;;;;;;10.56;73.90;102174.97;6161508;28;20207;-66
2021/11/14 06:25:09;;;;;;;48.00;33.93;;;;;;;10.54;74.19;102183.63;6152787;28;20471;-66
2021/11/14 06:28:30;;;;;;;52.53;33.90;;;;;;;10.60;73.94;102194.13;6165696;28;20231;-66
2021/11/14 06:31:51;;;;;;;51.60;33.13;;;;;;;10.56;74.13;102198.41;6164492;28;20228;-66
2021/11/14 06:35:13;;;;;;;57.87;35.40;;;;;;;10.69;73.68;102207.25;6163895;28;20207;-65
2021/11/14 06:38:34;;;;;;;56.67;36.27;;;;;;;10.61;73.43;102216.72;6158053;28;20235;-66
2021/11/14 06:41:55;;;;;;;49.73;36.60;;;;;;;10.71;73.13;102223.78;6160222;28;20295;-64
2021/11/14 06:45:16;;;;;;;52.80;37.13;;;;;;;10.76;72.77;102229.03;6159206;28;20211;-65
2021/11/14 06:48:38;;;;;;;57.77;36.60;;;;;;;10.72;72.71;102232.47;6164683;28;20238;-65
2021/11/14 06:52:00;;;;;;;50.83;36.83;;;;;;;10.62;73.09;102248.00;6164840;28;20298;-65
2021/11/14 06:55:22;;;;;;;31.60;20.10;;;;;;;11.33;83.94;102247.97;6156174;28;20223;-67
2021/11/14 06:58:42;;;;;;;53.73;37.27;;;;;;;11.03;74.08;102255.47;6158088;28;20235;-66
2021/11/14 07:02:04;;;;;;;51.73;37.10;;;;;;;10.84;73.26;102262.19;6154380;28;20250;-65
2021/11/14 07:05:25;;;;;;;53.57;36.73;;;;;;;10.88;73.40;102275.28;6166249;28;20203;-65
2021/11/14 07:08:47;;;;;;;59.73;40.43;;;;;;;10.71;72.99;102275.03;6161507;28;20231;-65
2021/11/14 07:12:10;;;;;;;47.63;35.67;;;;;;;10.60;74.00;102280.09;6152752;28;20230;-68
2021/11/14 07:15:31;;;;;;;55.97;39.87;;;;;;;10.62;73.49;102288.78;6150036;28;20307;-66
2021/11/14 07:18:52;;;;;;;56.43;38.50;;;;;;;10.43;74.00;102296.34;6144871;28;20234;-66
2021/11/14 07:22:13;;;;;;;55.30;39.27;;;;;;;10.44;74.65;102292.88;6149290;28;20226;-65
2021/11/14 07:25:35;;;;;;;50.43;37.83;;;;;;;10.57;74.00;102303.50;6151597;28;20207;-65
2021/11/14 07:28:56;;;;;;;53.07;37.77;;;;;;;10.64;74.10;102307.94;6144757;28;20230;-66
2021/11/14 07:32:18;;;;;;;53.07;38.13;;;;;;;10.59;74.11;102315.69;6138412;28;20233;-65
2021/11/14 07:35:39;;;;;;;46.83;34.90;;;;;;;10.62;73.92;102320.97;6139980;28;22155;-64
2021/11/14 07:39:00;;;;;;;48.50;36.37;;;;;;;10.72;72.84;102321.06;6142323;28;20238;-65
2021/11/14 07:42:23;;;;;;;51.37;38.03;;;;;;;10.78;72.96;102331.59;6155970;28;20305;-66
2021/11/14 07:45:44;;;;;;;49.80;35.93;;;;;;;10.75;72.55;102327.19;6159272;28;20745;-65
2021/11/14 07:49:05;;;;;;;53.27;35.10;;;;;;;10.44;73.27;102331.09;6159509;28;20660;-68
2021/11/14 07:52:29;;;;;;;46.63;34.07;;;;;;;10.54;73.73;102326.88;6157659;28;20227;-65
2021/11/14 07:55:50;;;;;;;52.83;34.70;;;;;;;10.37;74.16;102335.34;6156166;28;20265;-67
2021/11/14 07:59:12;;;;;;;51.57;33.80;;;;;;;10.54;73.51;102345.13;6160644;28;20262;-67
2021/11/14 08:02:33;;;;;;;56.67;35.23;;;;;;;10.18;74.15;102346.25;6156964;28;20587;-66
2021/11/14 08:05:54;;;;;;;64.63;38.90;;;;;;;9.88;75.04;102360.47;6153701;28;20202;-65
2021/11/14 08:09:15;;;;;;;61.00;38.20;;;;;;;9.84;75.42;102367.34;6153352;28;20230;-65
2021/11/14 08:12:36;;;;;;;59.23;34.67;;;;;;;10.22;74.47;102366.28;6146989;28;21528;-65
2021/11/14 08:15:59;;;;;;;55.97;35.70;;;;;;;10.35;73.99;102367.38;6149280;28;20215;-65
2021/11/14 08:19:19;;;;;;;53.63;36.17;;;;;;;10.53;78.82;102370.31;6175237;28;20230;-66
2021/11/14 08:22:41;;;;;;;56.20;37.70;;;;;;;10.89;74.79;102370.81;6160632;28;20234;-66
2021/11/14 08:26:03;;;;;;;48.80;35.03;;;;;;;10.75;74.49;102374.09;6160275;28;20278;-64
2021/11/14 08:29:24;;;;;;;51.57;31.30;;;;;;;11.60;81.58;102386.53;6157648;28;20227;-64
2021/11/14 08:32:47;;;;;;;231.37;92.37;;;;;;;12.11;74.54;102391.47;6156180;28;20534;-63
2021/11/14 08:36:08;;;;;;;116.10;89.67;;;;;;;12.28;70.97;102383.78;6161481;28;20214;-64
2021/11/14 08:39:28;;;;;;;101.07;91.53;;;;;;;11.93;70.19;102379.97;6155062;28;20367;-65
2021/11/14 08:42:49;;;;;;;208.97;189.63;;;;;;;12.13;69.75;102389.75;6160205;28;20231;-64
2021/11/14 08:46:11;;;;;;;232.80;207.80;;;;;;;11.91;69.46;102393.88;6158170;28;20250;-63
2021/11/14 08:49:33;;;;;;;275.40;248.87;;;;;;;12.30;66.89;102397.75;6159323;28;20222;-66
2021/11/14 08:52:55;;;;;;;316.07;290.60;;;;;;;11.98;65.13;102401.78;6158251;28;20233;-63
2021/11/14 08:56:16;;;;;;;92.67;84.07;;;;;;;11.83;67.74;102417.25;6163721;28;20651;-68
2021/11/14 08:59:38;;;;;;;64.53;57.97;;;;;;;11.90;65.55;102418.22;6156805;28;20593;-66
2021/11/14 09:03:00;;;;;;;39.17;30.03;;;;;;;11.30;66.90;102414.84;6151630;28;21434;-68
2021/11/14 09:06:23;;;;;;;44.43;33.13;;;;;;;11.13;67.87;102423.34;6160436;28;20353;-66
2021/11/14 09:09:44;;;;;;;44.47;33.93;;;;;;;11.10;68.35;102425.88;6154651;28;20625;-67
2021/11/14 09:13:05;;;;;;;52.07;36.10;;;;;;;10.89;69.09;102422.97;6163845;28;20226;-66
2021/11/14 09:16:28;;;;;;;45.60;32.17;;;;;;;11.21;68.97;102429.53;6159436;28;20226;-67
2021/11/14 09:19:48;;;;;;;46.90;33.93;;;;;;;10.96;69.13;102437.84;6161655;28;20226;-67
2021/11/14 09:23:11;;;;;;;41.43;32.83;;;;;;;10.66;70.19;102443.44;6159602;28;20230;-66
2021/11/14 09:26:32;;;;;;;41.23;32.07;;;;;;;10.63;70.31;102452.97;6160029;28;20195;-67
2021/11/14 09:29:53;;;;;;;41.30;30.83;;;;;;;10.20;72.40;102461.72;6157251;28;20608;-66
2021/11/14 09:33:14;;;;;;;39.03;29.40;;;;;;;10.53;71.84;102465.81;6159200;28;20222;-67
2021/11/14 09:36:37;;;;;;;36.80;27.90;;;;;;;10.73;70.44;102469.63;6160206;28;20227;-68
2021/11/14 09:40:00;;;;;;;37.10;27.93;;;;;;;10.63;70.97;102484.22;6158974;28;20234;-66
2021/11/14 09:43:21;;;;;;;41.43;29.87;;;;;;;11.03;70.34;102473.56;6155343;28;20317;-65
2021/11/14 09:46:47;;;;;;;42.40;29.93;;;;;;;11.17;69.45;102466.84;6158466;28;20192;-65
2021/11/14 09:50:09;;;;;;;43.77;31.30;;;;;;;11.25;69.33;102471.31;6148669;28;20219;-65
2021/11/14 09:53:32;;;;;;;47.23;33.00;;;;;;;10.79;70.39;102480.13;6160649;28;20234;-67
2021/11/14 09:56:56;;;;;;;39.43;30.47;;;;;;;10.78;70.25;102486.22;6163850;28;20226;-65
2021/11/14 10:00:20;;;;;;;40.67;28.73;;;;;;;10.83;70.65;102486.28;6161826;28;20603;-66
2021/11/14 10:03:41;;;;;;;40.97;29.47;;;;;;;10.99;70.19;102493.53;6151542;28;20262;-65
2021/11/14 10:07:08;;;;;;;45.23;33.80;;;;;;;11.11;69.67;102502.34;6162421;28;20234;-66
2021/11/14 10:10:31;;;;;;;43.83;31.67;;;;;;;10.56;71.13;102497.97;6161587;28;20712;-66
2021/11/14 10:13:53;;;;;;;40.90;30.60;;;;;;;11.00;70.13;102497.88;6165235;28;20227;-66
2021/11/14 10:17:21;;;;;;;44.37;32.67;;;;;;;11.11;69.43;102498.03;6165592;28;20226;-66
2021/11/14 10:20:42;;;;;;;44.80;33.80;;;;;;;11.26;68.69;102501.72;6160154;28;20245;-66
2021/11/14 10:24:05;;;;;;;47.03;36.00;;;;;;;11.11;69.01;102504.97;6161091;28;20631;-65
2021/11/14 10:27:28;;;;;;;48.50;34.73;;;;;;;11.15;69.03;102505.06;6158473;28;20787;-66
2021/11/14 10:30:51;;;;;;;48.00;36.30;;;;;;;11.27;68.16;102508.72;6163522;28;20219;-66
2021/11/14 10:34:12;;;;;;;47.00;35.27;;;;;;;11.01;68.52;102504.84;6153042;28;20257;-65
2021/11/14 10:37:39;;;;;;;48.63;36.73;;;;;;;10.88;68.47;102509.84;6158554;28;20239;-66
2021/11/14 10:41:02;;;;;;;47.37;35.17;;;;;;;11.12;67.45;102509.34;6163697;28;20211;-66
2021/11/14 10:44:23;;;;;;;52.00;35.80;;;;;;;10.97;67.95;102513.47;6164139;28;20234;-66
2021/11/14 10:47:54;;;;;;;46.07;34.47;;;;;;;11.00;67.27;102510.03;6165623;28;20305;-66
2021/11/14 10:51:16;;;;;;;49.43;37.17;;;;;;;10.72;67.51;102525.22;6156188;28;20199;-66
2021/11/14 10:54:37;;;;;;;48.47;36.60;;;;;;;10.68;68.16;102523.38;6162646;28;20333;-66
2021/11/14 10:57:59;;;;;;;43.53;35.53;;;;;;;10.71;67.82;102518.22;6164840;28;20516;-65
2021/11/14 11:01:21;;;;;;;44.10;34.17;;;;;;;10.53;67.70;102525.72;6157143;28;20609;-67
2021/11/14 11:04:43;;;;;;;41.57;30.40;;;;;;;10.56;67.29;102530.97;6157991;28;20528;-65
2021/11/14 11:08:06;;;;;;;45.13;32.13;;;;;;;10.61;65.79;102534.56;6157451;28;20228;-65
2021/11/14 11:11:28;;;;;;;44.60;30.10;;;;;;;10.44;64.94;102529.91;6155961;28;20195;-65
2021/11/14 11:14:58;;;;;;;44.63;33.13;;;;;;;10.58;65.07;102531.88;6158817;28;20234;-65
2021/11/14 11:18:21;;;;;;;44.47;34.47;;;;;;;10.91;64.93;102535.94;6165368;28;20233;-65
2021/11/14 11:21:46;;;;;;;43.20;33.57;;;;;;;11.18;63.84;102544.19;6160866;28;20191;-65
2021/11/14 11:25:07;;;;;;;41.63;31.33;;;;;;;11.02;64.14;102543.09;6163147;28;20231;-65
2021/11/14 11:28:31;;;;;;;41.60;32.67;;;;;;;11.93;75.40;102544.44;6155750;28;20557;-67
2021/11/14 11:31:53;;;;;;;38.70;27.43;;;;;;;12.55;75.06;102551.25;6155868;28;20215;-66
2021/11/14 11:35:14;;;;;;;40.87;30.33;;;;;;;13.02;71.81;102549.94;6163229;28;20211;-67
2021/11/14 11:38:36;;;;;;;48.67;34.93;;;;;;;12.75;62.92;102546.22;6152223;28;20238;-66
2021/11/14 11:42:00;;;;;;;46.70;33.13;;;;;;;12.37;61.35;102545.84;6163569;28;20199;-65
2021/11/14 11:45:32;;;;;;;46.57;33.47;;;;;;;12.20;61.47;102554.34;6161554;28;22495;-66
2021/11/14 11:48:58;;;;;;;42.97;31.73;;;;;;;11.61;64.82;102557.91;6153348;28;20506;-67
2021/11/14 11:52:19;;;;;;;44.10;32.60;;;;;;;11.43;63.64;102549.81;6153595;28;20235;-66
2021/11/14 11:55:42;;;;;;;37.80;27.97;;;;;;;12.39;71.27;102552.84;6158612;28;20210;-66
2021/11/14 11:59:10;;;;;;;48.10;31.90;;;;;;;12.04;62.08;102554.16;6154400;28;20234;-66
2021/11/14 12:02:31;;;;;;;46.77;34.33;;;;;;;11.94;62.24;102556.66;6157541;28;20888;-65
2021/11/14 12:05:53;;;;;;;45.17;33.07;;;;;;;11.57;62.02;102556.13;6164105;28;20187;-66
2021/11/14 12:09:17;;;;;;;44.90;33.17;;;;;;;11.53;61.63;102553.44;6156370;28;20226;-67
2021/11/14 12:12:48;;;;;;;44.03;32.43;;;;;;;11.47;62.77;102558.56;6151265;28;20226;-66
2021/11/14 12:16:09;;;;;;;43.70;29.40;;;;;;;11.58;62.21;102560.47;6155060;28;20624;-66
2021/11/14 12:19:31;;;;;;;41.97;29.60;;;;;;;11.76;62.36;102558.97;6160127;28;20537;-64
2021/11/14 12:22:57;;;;;;;46.60;28.67;;;;;;;11.87;63.78;102562.63;6152354;28;20628;-64
2021/11/14 12:26:26;;;;;;;42.33;27.90;;;;;;;11.71;63.69;102564.16;6152228;28;20202;-64
2021/11/14 12:29:56;;;;;;;45.17;32.63;;;;;;;11.89;63.45;102568.78;6143025;28;20230;-64
2021/11/14 12:33:22;;;;;;;42.83;30.37;;;;;;;11.90;64.30;102565.28;6146061;28;20227;-64
2021/11/14 12:36:46;;;;;;;39.77;29.10;;;;;;;11.92;63.52;102568.81;6137440;28;20211;-64
2021/11/14 12:40:12;;;;;;;43.93;32.80;;;;;;;11.75;63.27;102570.28;6136087;28;20203;-64
2021/11/14 12:43:35;;;;;;;45.17;30.93;;;;;;;11.83;62.69;102568.66;6126379;28;20257;-66
2021/11/14 12:46:58;;;;;;;46.33;32.27;;;;;;;11.19;63.21;102581.63;6136698;28;20246;-65
2021/11/14 12:50:22;;;;;;;42.03;31.90;;;;;;;11.25;62.50;102589.53;6141269;28;20199;-66
2021/11/14 12:53:49;;;;;;;47.87;33.97;;;;;;;11.31;62.49;102588.75;6154935;28;20238;-66
2021/11/14 12:57:13;;;;;;;49.20;33.97;;;;;;;11.24;61.98;102587.75;6149625;28;20238;-66
2021/11/14 13:00:37;;;;;;;45.57;31.73;;;;;;;10.89;62.56;102590.63;6155062;28;20234;-66
2021/11/14 13:04:00;;;;;;;42.20;31.00;;;;;;;11.05;62.05;102594.41;6159416;28;20773;-65
2021/11/14 13:07:26;;;;;;;46.47;32.13;;;;;;;11.28;61.84;102596.50;6157512;28;20521;-65
2021/11/14 13:10:49;;;;;;;44.17;30.77;;;;;;;11.07;62.47;102597.94;6160494;28;20210;-65
2021/11/14 13:14:12;;;;;;;44.23;30.67;;;;;;;10.66;62.33;102602.38;6158932;28;20234;-64
2021/11/14 13:17:33;;;;;;;43.87;29.63;;;;;;;10.80;62.65;102601.78;6158870;28;20652;-65
2021/11/14 13:20:57;;;;;;;42.07;30.40;;;;;;;10.73;62.30;102599.03;6159032;28;20229;-64
2021/11/14 13:24:20;;;;;;;39.93;28.43;;;;;;;10.78;62.88;102600.88;6158674;28;20234;-65
2021/11/14 13:27:41;;;;;;;44.47;30.67;;;;;;;10.41;63.06;102610.59;6157621;28;20223;-65
2021/11/14 13:31:02;;;;;;;43.73;31.13;;;;;;;10.62;63.57;102606.63;6155719;28;20195;-65
2021/11/14 13:34:24;;;;;;;41.33;28.03;;;;;;;10.84;62.55;102610.56;6165953;28;20721;-65
2021/11/14 13:37:48;;;;;;;37.10;27.70;;;;;;;10.83;62.88;102620.06;6157968;28;20242;-64
2021/11/14 13:41:16;;;;;;;40.00;28.57;;;;;;;10.91;62.37;102619.34;6168518;28;20797;-64
2021/11/14 13:44:40;;;;;;;40.90;28.80;;;;;;;10.63;62.28;102619.72;6162349;28;20234;-65
2021/11/14 13:48:03;;;;;;;37.90;28.97;;;;;;;10.57;62.35;102632.63;6162424;28;20235;-66
2021/11/14 13:51:25;;;;;;;46.03;29.20;;;;;;;10.33;63.62;102624.28;6162109;28;20377;-65
2021/11/14 13:54:53;;;;;;;40.67;27.47;;;;;;;10.69;62.98;102637.19;6150316;28;20218;-63
2021/11/14 13:58:14;;;;;;;39.33;27.00;;;;;;;10.79;62.74;102633.91;6164356;28;20261;-65
2021/11/14 14:01:35;;;;;;;41.67;27.83;;;;;;;10.95;62.22;102634.19;6166026;28;20597;-64
2021/11/14 14:04:58;;;;;;;40.77;27.53;;;;;;;10.74;62.78;102632.06;6162881;28;20227;-64
2021/11/14 14:08:27;;;;;;;40.77;27.33;;;;;;;10.78;62.72;102634.78;6158175;28;20242;-63
2021/11/14 14:11:49;;;;;;;42.70;29.50;;;;;;;10.71;63.36;102639.84;6151509;28;20203;-64
2021/11/14 14:15:13;;;;;;;44.23;30.00;;;;;;;10.86;62.88;102644.44;6151426;28;20573;-64
2021/11/14 14:18:37;;;;;;;40.23;29.67;;;;;;;10.86;62.92;102642.72;6153878;28;20250;-64
2021/11/14 14:22:03;;;;;;;36.00;27.33;;;;;;;10.70;63.57;102645.88;6157077;28;20207;-64
2021/11/14 14:25:26;;;;;;;42.77;29.77;;;;;;;10.48;64.53;102644.56;6147580;28;20222;-66
2021/11/14 14:28:50;;;;;;;37.53;28.17;;;;;;;10.71;63.79;102645.91;6155398;28;20310;-67
2021/11/14 14:32:15;;;;;;;41.43;30.70;;;;;;;10.66;63.84;102644.06;6153494;28;20219;-66
2021/11/14 14:35:42;;;;;;;40.13;29.43;;;;;;;10.61;63.79;102641.38;6161822;28;20585;-66
2021/11/14 14:39:07;;;;;;;44.97;28.97;;;;;;;10.36;64.37;102646.06;6155059;28;20234;-66
2021/11/14 14:42:28;;;;;;;40.10;27.73;;;;;;;10.48;64.79;102655.00;6154988;28;20238;-66
2021/11/14 14:45:56;;;;;;;40.97;27.70;;;;;;;10.71;64.08;102653.72;6147585;28;20552;-65
2021/11/14 14:49:18;;;;;;;44.70;28.77;;;;;;;10.60;63.79;102655.25;6154904;28;20238;-66
2021/11/14 14:52:44;;;;;;;44.67;32.30;;;;;;;10.65;63.91;102664.03;6159245;28;20557;-67
2021/11/14 14:56:14;;;;;;;44.57;28.10;;;;;;;10.43;64.20;102657.53;6157912;28;20227;-67
2021/11/14 14:59:37;;;;;;;46.33;30.63;;;;;;;10.68;64.31;102669.28;6159068;28;20257;-66
2021/11/14 15:03:01;;;;;;;42.10;29.03;;;;;;;10.70;64.33;102670.22;6146332;28;20262;-67
2021/11/14 15:06:24;;;;;;;48.37;31.27;;;;;;;10.68;64.22;102674.50;6154694;28;20214;-65
2021/11/14 15:09:51;;;;;;;42.70;27.47;;;;;;;10.82;64.11;102677.41;6159154;28;20231;-66
2021/11/14 15:13:13;;;;;;;41.57;29.03;;;;;;;10.78;64.01;102673.84;6153932;28;20628;-66
2021/11/14 15:16:36;;;;;;;43.77;29.43;;;;;;;10.73;64.41;102680.69;6150682;28;20207;-66
2021/11/14 15:20:01;;;;;;;50.70;33.73;;;;;;;10.36;65.52;102692.09;6129970;28;20219;-66